Durham, New Hampshire
Current Conditions -  °F | °C
As of 11:13 AM on Thursday 23 Oct 2014 (Local Time) from KPSM Reporting Station
Light Rain Light Rain  
Wind Chill: 52°   Ceiling: 1000
Heat Index: 52°   Visibility: 2.5mi
Dew Point: 50°   Wind: 17mph
Humidity: 94%   Direction: 20°NNE
Pressure: 29.7"   Gusts: 32mph
Location:  43.13°N, 70.92°W
Report Text: KPSM 231513Z 02015G28KT 2 1/2SM -RA BR FEW002 BKN010 OVC016 11/10 A2970 RMK AO2A
Loading
Personal Weather Stations






























Interactive Weather Map New forecast layout! Learn more

10-Day Weather Forecast

Advertisements
Track Severe Weather on mobile